Oxnard Airport
KOXR : now visible

Airfield :











YOU CAN JOIN US ON...

 
LOGIN :

Register | Disclaimer

   EN    FR    IT 

 









Legend :    VFR   Marginal VFR   IFR   Intensive IFR   Very Intensive IFR
Visi :
Ceiling :
>= 8 km
>= 3000ft
5 to 8 km
1000 to 3000 ft
1500m to 5 km
500 to 1000 ft
800 to 1500m
200 to 500 ft
< 800m
< 200 ft
Symbols :   Thunderstorms  Fog  Heavy snow  Heavy precipitations  Wind > 20 kt






- Airport Elevation : 45 ft


KOXR - Oxnard

CURRENT METAR :
  • 191951Z 26008KT 7SM BKN008 21/16 A2999 RMK AO2 SLP154 T02060161 $

EXPIRED METARs :
  • 191851Z 26007KT 10SM BKN008 21/17 A3000 RMK AO2 SLP157 T02110167 $
  • 191751Z 27005KT 10SM FEW009 21/16 A3000 RMK AO2 SLP157 T02110161 10211 20167 58000 $
  • 191651Z 29003KT 9SM OVC006 18/16 A3000 RMK AO2 SLP158 T01830156 $
  • 191640Z 00000KT 8SM OVC006 18/16 A3000 RMK AO2 T01830161 $
  • 191551Z 28003KT 5SM BR OVC003 17/16 A3000 RMK AO2 SLP159 T01670156 $

TAF KOXR
Valid from the 19 at 18:00 until the 20 at 18:00 UTC


191721Z 1918/2018 28008KT P6SM BKN006
FM192200 27012KT P6SM SCT006
FM200100 27012KT P6SM BKN006
FM200500 VRB03KT 2SM BR OVC004
FM201100 VRB03KT 1SM BR VCFG OVC003
FM201600 VRB03KT 5SM BR OVC006
KZLA FIR / North America



MET'MAP, your aeronautical weather chart ! - Copyright ORBIFLY December 2007 - Disclaimer

ORBIFLY MET'MAP TEAM :

Programming & Development : Alexandra Zaïnal
Original concept : Baudouin d'Aumeries
Technical & hardware support : Manuel Goepfert
Assistance : Marc-Olivier Méhu




SOURCES & CREDITS :

   NOAA       Earth
Advisory